createdAt,value
2022-09-03T00:00:41.988Z,17.89
2022-09-03T00:03:20.510Z,17.82
2022-09-03T00:05:55.526Z,17.82
2022-09-03T00:08:25.035Z,17.78
2022-09-03T00:11:17.561Z,17.74
2022-09-03T00:13:51.444Z,17.69
2022-09-03T00:16:21.797Z,17.63
2022-09-03T00:18:54.465Z,17.63
2022-09-03T00:21:34.140Z,17.62
2022-09-03T00:24:04.536Z,17.55
2022-09-03T00:26:35.990Z,17.57
2022-09-03T00:29:09.844Z,17.56
2022-09-03T00:31:42.848Z,17.56
2022-09-03T00:34:21.219Z,17.52
2022-09-03T00:36:47.758Z,17.46
2022-09-03T00:39:20.633Z,17.43
2022-09-03T00:42:24.966Z,17.39
2022-09-03T00:44:56.829Z,17.40
2022-09-03T00:47:38.593Z,17.37
2022-09-03T00:50:41.281Z,17.30
2022-09-03T00:53:32.286Z,17.31
2022-09-03T00:56:04.278Z,17.28
2022-09-03T00:58:44.715Z,17.29
2022-09-03T01:01:26.376Z,17.27
2022-09-03T01:04:21.575Z,17.25
2022-09-03T01:07:09.109Z,17.19
2022-09-03T01:10:01.190Z,17.15
2022-09-03T01:12:39.871Z,17.11
2022-09-03T01:15:15.362Z,17.12
2022-09-03T01:17:50.493Z,17.05
2022-09-03T01:20:35.492Z,17.04
2022-09-03T01:23:17.143Z,17.01
2022-09-03T01:26:05.364Z,16.99
2022-09-03T01:29:12.124Z,16.93
2022-09-03T01:31:57.938Z,16.92
2022-09-03T01:34:56.960Z,16.86
2022-09-03T01:37:47.037Z,16.91
2022-09-03T01:40:40.686Z,16.87
2022-09-03T01:43:34.136Z,16.81
2022-09-03T01:46:19.046Z,16.76
2022-09-03T01:49:00.605Z,16.73
2022-09-03T01:51:32.235Z,16.70
2022-09-03T01:54:21.541Z,16.74
2022-09-03T01:57:19.128Z,16.72
2022-09-03T02:00:04.290Z,16.66
2022-09-03T02:02:31.677Z,16.64
2022-09-03T02:05:01.324Z,16.65
2022-09-03T02:07:34.678Z,16.61
2022-09-03T02:10:02.609Z,16.56
2022-09-03T02:12:33.574Z,16.52
2022-09-03T02:15:03.893Z,16.46
2022-09-03T02:17:33.755Z,16.44
2022-09-03T02:20:06.688Z,16.48
2022-09-03T02:22:34.129Z,16.44
2022-09-03T02:25:01.179Z,16.42
2022-09-03T02:27:28.098Z,16.42
2022-09-03T02:29:54.642Z,16.42
2022-09-03T02:32:21.196Z,16.40
2022-09-03T02:34:47.910Z,16.38
2022-09-03T02:37:15.595Z,16.38
2022-09-03T02:39:42.488Z,16.33
2022-09-03T02:42:11.341Z,16.34
2022-09-03T02:44:45.019Z,16.28
2022-09-03T02:47:11.474Z,16.29
2022-09-03T02:49:38.297Z,16.26
2022-09-03T02:52:09.523Z,16.26
2022-09-03T02:54:40.079Z,16.17
2022-09-03T02:57:13.649Z,16.14
2022-09-03T02:59:41.665Z,16.13
2022-09-03T03:02:08.608Z,16.12
2022-09-03T03:04:35.239Z,16.12
2022-09-03T03:07:01.680Z,16.11
2022-09-03T03:09:29.502Z,16.13
2022-09-03T03:11:56.150Z,16.05
2022-09-03T03:14:23.377Z,16.05
2022-09-03T03:16:50.870Z,16.06
2022-09-03T03:19:17.816Z,16.08
2022-09-03T03:21:44.578Z,16.06
2022-09-03T03:24:11.330Z,16.01
2022-09-03T03:26:37.887Z,15.98
2022-09-03T03:29:04.876Z,15.90
2022-09-03T03:31:31.545Z,15.94
2022-09-03T03:34:00.485Z,15.95
2022-09-03T03:36:30.038Z,15.90
2022-09-03T03:38:58.295Z,15.87
2022-09-03T03:41:27.229Z,15.91
2022-09-03T03:43:58.112Z,15.90
2022-09-03T03:46:25.928Z,15.84
2022-09-03T03:48:52.802Z,15.79
2022-09-03T03:51:22.384Z,15.79
2022-09-03T03:53:49.045Z,15.80
2022-09-03T03:56:16.461Z,15.79
2022-09-03T03:58:44.140Z,15.74
2022-09-03T04:01:22.258Z,15.69
2022-09-03T04:03:48.881Z,15.71
2022-09-03T04:06:17.812Z,15.71
2022-09-03T04:08:47.321Z,15.70
2022-09-03T04:11:21.742Z,15.66
2022-09-03T04:13:49.159Z,15.61
2022-09-03T04:16:20.964Z,15.55
2022-09-03T04:18:50.574Z,15.51
2022-09-03T04:21:22.610Z,15.50
2022-09-03T04:23:51.833Z,15.56
2022-09-03T04:26:23.568Z,15.54
2022-09-03T04:28:50.232Z,15.52
2022-09-03T04:31:22.457Z,15.48
2022-09-03T04:33:52.211Z,15.47
2022-09-03T04:36:20.910Z,15.45
2022-09-03T04:38:53.493Z,15.41
2022-09-03T04:41:24.894Z,15.33
2022-09-03T04:43:52.968Z,15.34
2022-09-03T04:46:21.268Z,15.31
2022-09-03T04:48:52.689Z,15.34
2022-09-03T04:51:23.283Z,15.38
2022-09-03T04:53:57.317Z,15.37
2022-09-03T04:56:28.823Z,15.40
2022-09-03T04:59:01.386Z,15.37
2022-09-03T05:01:30.002Z,15.35
2022-09-03T05:03:58.006Z,15.34
2022-09-03T05:06:25.726Z,15.36
2022-09-03T05:08:54.291Z,15.34
2022-09-03T05:11:21.493Z,15.33
2022-09-03T05:13:53.812Z,15.28
2022-09-03T05:16:21.726Z,15.25
2022-09-03T05:18:48.746Z,15.28
2022-09-03T05:21:17.275Z,15.28
2022-09-03T05:23:45.813Z,15.29
2022-09-03T05:26:34.167Z,15.24
2022-09-03T05:29:02.559Z,15.30
2022-09-03T05:31:31.499Z,15.30
2022-09-03T05:34:00.471Z,15.33
2022-09-03T05:36:29.496Z,15.35
2022-09-03T05:38:56.396Z,15.33
2022-09-03T05:41:25.531Z,15.32
2022-09-03T05:43:59.437Z,15.31
2022-09-03T05:46:32.266Z,15.29
2022-09-03T05:49:01.395Z,15.38
2022-09-03T05:51:29.123Z,15.44
2022-09-03T05:53:55.855Z,15.48
2022-09-03T05:56:24.519Z,15.52
2022-09-03T05:58:53.746Z,15.54
2022-09-03T06:01:23.259Z,15.59
2022-09-03T06:03:58.346Z,15.68
2022-09-03T06:06:27.121Z,15.75
2022-09-03T06:08:55.408Z,15.76
2022-09-03T06:11:28.073Z,15.85
2022-09-03T06:13:56.703Z,15.97
2022-09-03T06:16:30.652Z,16.04
2022-09-03T06:19:01.687Z,16.08
2022-09-03T06:21:29.509Z,16.17
2022-09-03T06:23:59.483Z,16.31
2022-09-03T06:26:29.326Z,16.40
2022-09-03T06:28:56.821Z,16.44
2022-09-03T06:31:24.865Z,16.56
2022-09-03T06:33:53.018Z,16.64
2022-09-03T06:36:25.079Z,16.75
2022-09-03T06:38:53.584Z,16.85
2022-09-03T06:41:25.931Z,16.99
2022-09-03T06:43:55.630Z,17.04
2022-09-03T06:46:23.948Z,17.10
2022-09-03T06:48:51.624Z,17.18
2022-09-03T06:51:23.759Z,17.24
2022-09-03T06:53:52.848Z,17.30
2022-09-03T06:56:27.423Z,17.40
2022-09-03T06:58:59.379Z,17.40
2022-09-03T07:01:31.195Z,17.44
2022-09-03T07:04:00.967Z,17.51
2022-09-03T07:06:33.070Z,17.56
2022-09-03T07:09:00.168Z,17.61
2022-09-03T07:11:29.277Z,17.63
2022-09-03T07:13:56.234Z,17.69
2022-09-03T07:16:29.726Z,17.70
2022-09-03T07:18:57.153Z,17.69
2022-09-03T07:21:26.047Z,17.79
2022-09-03T07:23:53.795Z,17.82
2022-09-03T07:26:26.376Z,17.83
2022-09-03T07:28:54.217Z,17.80
2022-09-03T07:31:26.035Z,17.83
2022-09-03T07:33:57.310Z,17.83
2022-09-03T07:36:27.212Z,17.82
2022-09-03T07:38:59.091Z,17.84
2022-09-03T07:41:28.245Z,17.86
2022-09-03T07:43:55.763Z,17.93
2022-09-03T07:46:24.622Z,18.02
2022-09-03T07:48:55.449Z,18.05
2022-09-03T07:51:26.554Z,18.15
2022-09-03T07:53:56.043Z,18.22
2022-09-03T07:56:22.980Z,18.21
2022-09-03T07:58:55.233Z,18.29
2022-09-03T08:01:24.049Z,18.34
2022-09-03T08:03:53.174Z,18.47
2022-09-03T08:06:24.802Z,18.56
2022-09-03T08:09:02.171Z,18.61
2022-09-03T08:11:31.542Z,18.68
2022-09-03T08:14:02.551Z,18.76
2022-09-03T08:16:31.521Z,18.88
2022-09-03T08:18:59.059Z,18.98
2022-09-03T08:21:26.864Z,19.09
2022-09-03T08:23:54.771Z,19.17
2022-09-03T08:26:22.220Z,19.27
2022-09-03T08:28:49.719Z,19.32
2022-09-03T08:31:19.973Z,19.37
2022-09-03T08:33:52.212Z,19.42
2022-09-03T08:36:24.565Z,19.59
2022-09-03T08:38:55.111Z,19.67
2022-09-03T08:41:46.515Z,19.72
2022-09-03T08:44:51.824Z,19.79
2022-09-03T08:47:59.995Z,19.84
2022-09-03T08:50:35.537Z,19.98
2022-09-03T08:53:20.212Z,20.06
2022-09-03T08:56:07.393Z,20.16
2022-09-03T08:58:38.333Z,20.23
2022-09-03T09:01:27.824Z,20.17
2022-09-03T09:04:05.869Z,20.25
2022-09-03T09:06:40.384Z,20.30
2022-09-03T09:09:26.665Z,20.36
2022-09-03T09:11:55.900Z,20.42
2022-09-03T09:14:36.947Z,20.45
2022-09-03T09:17:28.159Z,20.52
2022-09-03T09:20:09.402Z,20.60
2022-09-03T09:22:47.421Z,20.65
2022-09-03T09:25:18.772Z,20.69
2022-09-03T09:27:51.962Z,20.75
2022-09-03T09:30:19.987Z,20.86
2022-09-03T09:32:47.255Z,20.94
2022-09-03T09:35:18.888Z,21.00
2022-09-03T09:37:57.030Z,21.05
2022-09-03T09:40:35.144Z,21.08
2022-09-03T09:43:10.932Z,21.16
2022-09-03T09:45:43.506Z,21.25
2022-09-03T09:48:24.002Z,21.27
2022-09-03T09:50:50.658Z,21.27
2022-09-03T09:53:21.484Z,21.38
2022-09-03T09:55:58.108Z,21.49
2022-09-03T09:58:30.891Z,21.58
2022-09-03T10:01:04.090Z,21.65
2022-09-03T10:03:35.626Z,21.66
2022-09-03T10:06:32.504Z,21.72
2022-09-03T10:09:12.118Z,21.81
2022-09-03T10:11:42.949Z,21.90
2022-09-03T10:14:24.450Z,22.00
2022-09-03T10:16:59.591Z,22.00
2022-09-03T10:19:40.281Z,22.08
2022-09-03T10:22:17.950Z,22.08
2022-09-03T10:24:59.132Z,22.21
2022-09-03T10:27:25.942Z,22.31
2022-09-03T10:29:53.409Z,22.38
2022-09-03T10:32:36.911Z,22.49
2022-09-03T10:35:21.968Z,22.62
2022-09-03T10:38:02.836Z,22.68
2022-09-03T10:40:35.128Z,22.76
2022-09-03T10:43:44.927Z,22.91
2022-09-03T10:46:20.621Z,23.01
2022-09-03T10:49:30.074Z,23.11
2022-09-03T10:52:08.941Z,23.29
2022-09-03T10:54:44.635Z,23.39
2022-09-03T10:57:20.607Z,23.50
2022-09-03T10:59:56.220Z,23.51
2022-09-03T11:02:29.062Z,23.63
2022-09-03T11:05:19.624Z,23.65
2022-09-03T11:07:54.116Z,23.70
2022-09-03T11:10:33.281Z,23.73
2022-09-03T11:13:09.649Z,23.86
2022-09-03T11:15:51.661Z,24.00
2022-09-03T11:18:25.878Z,24.02
2022-09-03T11:20:57.217Z,24.02
2022-09-03T11:23:25.654Z,24.20
2022-09-03T11:25:57.597Z,24.27
2022-09-03T11:28:52.104Z,24.30
2022-09-03T11:31:57.743Z,24.35
2022-09-03T11:34:32.543Z,24.56
2022-09-03T11:37:22.014Z,24.62
2022-09-03T11:40:04.316Z,24.74
2022-09-03T11:42:36.838Z,24.74
2022-09-03T11:45:21.550Z,24.75
2022-09-03T11:47:52.372Z,24.83
2022-09-03T11:50:22.133Z,24.97
2022-09-03T11:52:51.761Z,25.24
2022-09-03T11:55:37.590Z,25.24
2022-09-03T11:58:36.396Z,25.35
2022-09-03T12:01:09.025Z,25.32
2022-09-03T12:04:03.539Z,25.33
2022-09-03T12:06:45.849Z,25.36
2022-09-03T12:09:31.305Z,25.49
2022-09-03T12:12:16.301Z,25.60
2022-09-03T12:15:04.163Z,25.68
2022-09-03T12:18:10.861Z,25.65
2022-09-03T12:20:37.623Z,25.58
2022-09-03T12:23:04.182Z,25.63
2022-09-03T12:25:30.830Z,25.66
2022-09-03T12:28:01.308Z,25.71
2022-09-03T12:30:30.342Z,25.70
2022-09-03T12:33:07.951Z,25.77
2022-09-03T12:38:26.155Z,25.92
2022-09-03T12:43:42.407Z,25.96
2022-09-03T12:46:16.041Z,26.08
2022-09-03T12:51:52.162Z,25.97
2022-09-03T12:54:21.339Z,25.96
2022-09-03T12:57:00.158Z,26.03
2022-09-03T12:59:31.726Z,26.16
2022-09-03T13:02:12.829Z,26.20
2022-09-03T13:04:41.246Z,26.16
2022-09-03T13:07:33.528Z,26.45
2022-09-03T13:10:07.815Z,26.39
2022-09-03T13:12:53.463Z,26.32
2022-09-03T13:15:23.863Z,26.17
2022-09-03T13:18:07.765Z,26.17
2022-09-03T13:20:34.786Z,26.11
2022-09-03T13:23:20.982Z,26.17
2022-09-03T13:25:53.856Z,26.14
2022-09-03T13:28:29.809Z,26.21
2022-09-03T13:31:34.032Z,26.15
2022-09-03T13:34:09.482Z,26.29
2022-09-03T13:36:49.026Z,26.47
2022-09-03T13:39:18.729Z,26.58
2022-09-03T13:41:58.112Z,26.56
2022-09-03T13:44:38.139Z,26.38
2022-09-03T13:47:25.839Z,26.56
2022-09-03T13:50:37.231Z,26.65
2022-09-03T13:53:22.722Z,26.78
2022-09-03T13:55:54.735Z,26.77
2022-09-03T13:58:44.939Z,26.79
2022-09-03T14:01:37.046Z,26.72
2022-09-03T14:04:03.801Z,26.77
2022-09-03T14:06:50.764Z,26.68
2022-09-03T14:09:35.524Z,26.57
2022-09-03T14:12:25.130Z,26.65
2022-09-03T14:15:29.670Z,26.62
2022-09-03T14:18:28.889Z,26.50
2022-09-03T14:20:58.773Z,26.40
2022-09-03T14:23:59.692Z,26.29
2022-09-03T14:26:39.586Z,26.25
2022-09-03T14:29:12.653Z,26.36
2022-09-03T14:31:52.047Z,26.31
2022-09-03T14:34:31.225Z,26.26
2022-09-03T14:37:21.245Z,26.30
2022-09-03T14:40:13.464Z,26.32
2022-09-03T14:43:10.561Z,26.43
2022-09-03T14:45:53.540Z,26.65
2022-09-03T14:48:29.221Z,26.74
2022-09-03T14:50:58.860Z,26.70
2022-09-03T14:54:06.964Z,26.69
2022-09-03T14:57:13.281Z,26.67
2022-09-03T14:59:49.125Z,26.66
2022-09-03T15:02:34.187Z,26.74
2022-09-03T15:05:11.807Z,26.81
2022-09-03T15:07:56.216Z,26.84
2022-09-03T15:10:37.609Z,26.94
2022-09-03T15:13:17.665Z,26.97
2022-09-03T15:16:12.959Z,26.92
2022-09-03T15:19:16.341Z,27.14
2022-09-03T15:22:11.965Z,27.32
2022-09-03T15:25:17.297Z,27.45
2022-09-03T15:28:00.644Z,27.42
2022-09-03T15:30:37.055Z,27.42
2022-09-03T15:33:17.725Z,27.54
2022-09-03T15:36:14.977Z,27.55
2022-09-03T15:38:51.684Z,27.41
2022-09-03T15:41:49.073Z,27.28
2022-09-03T15:44:20.014Z,27.03
2022-09-03T15:47:05.283Z,26.76
2022-09-03T15:49:53.014Z,26.60
2022-09-03T15:52:32.108Z,26.47
2022-09-03T15:55:15.353Z,26.39
2022-09-03T15:57:54.648Z,26.26
2022-09-03T16:00:22.660Z,26.11
2022-09-03T16:02:58.960Z,25.91
2022-09-03T16:05:39.341Z,25.91
2022-09-03T16:08:14.812Z,25.77
2022-09-03T16:11:09.661Z,25.67
2022-09-03T16:13:54.636Z,25.67
2022-09-03T16:16:31.821Z,25.66
2022-09-03T16:19:21.725Z,25.59
2022-09-03T16:22:22.355Z,25.53
2022-09-03T16:25:05.970Z,25.37
2022-09-03T16:27:38.361Z,25.27
2022-09-03T16:30:21.619Z,25.20
2022-09-03T16:33:01.665Z,25.24
2022-09-03T16:35:55.206Z,25.09
2022-09-03T16:38:49.048Z,24.96
2022-09-03T16:41:26.356Z,24.96
2022-09-03T16:44:10.036Z,24.94
2022-09-03T16:47:06.448Z,24.81
2022-09-03T16:49:42.806Z,24.65
2022-09-03T16:52:38.247Z,24.54
2022-09-03T16:55:30.562Z,24.55
2022-09-03T16:58:25.029Z,24.46
2022-09-03T17:01:21.028Z,24.38
2022-09-03T17:04:09.231Z,24.32
2022-09-03T17:06:54.824Z,24.19
2022-09-03T17:09:38.309Z,24.13
2022-09-03T17:12:10.951Z,24.03
2022-09-03T17:15:03.290Z,23.99
2022-09-03T17:17:35.571Z,24.01
2022-09-03T17:20:29.671Z,23.88
2022-09-03T17:23:13.051Z,23.81
2022-09-03T17:25:46.867Z,23.75
2022-09-03T17:28:27.363Z,23.67
2022-09-03T17:31:16.084Z,23.60
2022-09-03T17:34:14.374Z,23.50
2022-09-03T17:36:56.576Z,23.35
2022-09-03T17:39:53.548Z,23.40
2022-09-03T17:42:33.164Z,23.31
2022-09-03T17:45:25.782Z,23.19
2022-09-03T17:48:11.508Z,23.18
2022-09-03T17:51:01.488Z,23.08
2022-09-03T17:53:38.255Z,22.98
2022-09-03T17:56:11.865Z,22.93
2022-09-03T17:58:41.265Z,22.86
2022-09-03T18:01:17.105Z,22.72
2022-09-03T18:03:54.810Z,22.69
2022-09-03T18:06:28.337Z,22.67
2022-09-03T18:09:06.014Z,22.61
2022-09-03T18:11:41.909Z,22.50
2022-09-03T18:14:23.661Z,22.39
2022-09-03T18:17:11.837Z,22.34
2022-09-03T18:20:11.340Z,22.26
2022-09-03T18:23:08.871Z,22.20
2022-09-03T18:25:56.876Z,22.08
2022-09-03T18:28:55.725Z,21.97
2022-09-03T18:31:41.025Z,21.92
2022-09-03T18:34:27.395Z,21.87
2022-09-03T18:37:17.065Z,21.74
2022-09-03T18:40:08.172Z,21.63
2022-09-03T18:43:07.793Z,21.49
2022-09-03T18:47:16.130Z,21.44
2022-09-03T18:49:32.311Z,21.36
2022-09-03T18:52:29.561Z,21.27
2022-09-03T18:55:27.015Z,21.22
2022-09-03T18:58:44.713Z,21.15
2022-09-03T19:01:54.025Z,21.04
2022-09-03T19:04:57.984Z,20.95
2022-09-03T19:08:01.554Z,20.88
2022-09-03T19:10:57.061Z,20.79
2022-09-03T19:13:41.913Z,20.72
2022-09-03T19:16:46.797Z,20.65
2022-09-03T19:19:53.546Z,20.61
2022-09-03T19:22:50.149Z,20.54
2022-09-03T19:25:35.629Z,20.48
2022-09-03T19:28:35.585Z,20.45
2022-09-03T19:31:36.372Z,20.40
2022-09-03T19:34:43.025Z,20.34
2022-09-03T19:37:37.204Z,20.26
2022-09-03T19:40:40.551Z,20.18
2022-09-03T19:43:53.646Z,20.13
2022-09-03T19:47:00.686Z,20.10
2022-09-03T19:50:23.709Z,20.07
2022-09-03T19:53:14.452Z,20.00
2022-09-03T19:56:12.966Z,19.93
2022-09-03T19:59:05.527Z,19.89
2022-09-03T20:01:54.902Z,19.84
2022-09-03T20:04:50.677Z,19.82
2022-09-03T20:07:37.784Z,19.73
2022-09-03T20:10:23.736Z,19.70
2022-09-03T20:13:03.515Z,19.64
2022-09-03T20:15:50.366Z,19.55
2022-09-03T20:18:30.747Z,19.49
2022-09-03T20:21:25.223Z,19.51
2022-09-03T20:24:11.290Z,19.46
2022-09-03T20:26:46.221Z,19.39
2022-09-03T20:29:43.778Z,19.36
2022-09-03T20:32:31.695Z,19.36
2022-09-03T20:35:07.916Z,19.34
2022-09-03T20:37:59.019Z,19.30
2022-09-03T20:40:34.770Z,19.30
2022-09-03T20:43:58.602Z,19.27
2022-09-03T20:47:00.492Z,19.25
2022-09-03T20:49:54.595Z,19.19
2022-09-03T20:52:45.790Z,18.96
2022-09-03T20:55:12.875Z,19.11
2022-09-03T20:57:54.830Z,19.15
2022-09-03T21:00:23.333Z,19.15
2022-09-03T21:03:17.290Z,19.09
2022-09-03T21:06:06.764Z,19.02
2022-09-03T21:08:50.626Z,18.97
2022-09-03T21:11:30.528Z,18.89
2022-09-03T21:14:14.621Z,18.85
2022-09-03T21:17:18.833Z,18.78
2022-09-03T21:20:05.495Z,18.72
2022-09-03T21:23:07.343Z,18.73
2022-09-03T21:25:40.875Z,18.66
2022-09-03T21:28:38.502Z,18.66
2022-09-03T21:31:38.531Z,18.46
2022-09-03T21:34:12.984Z,18.48
2022-09-03T21:36:43.482Z,18.24
2022-09-03T21:39:15.313Z,18.38
2022-09-03T21:41:52.536Z,18.22
2022-09-03T21:44:39.345Z,18.38
2022-09-03T21:47:10.238Z,18.42
2022-09-03T21:50:11.966Z,18.48
2022-09-03T21:53:09.469Z,18.51
2022-09-03T21:56:08.225Z,18.49
2022-09-03T21:58:57.693Z,18.49
2022-09-03T22:01:30.017Z,18.44
2022-09-03T22:03:56.496Z,18.41
2022-09-03T22:06:35.037Z,18.43
2022-09-03T22:09:19.101Z,18.41
2022-09-03T22:12:08.709Z,18.39
2022-09-03T22:14:50.140Z,18.30
2022-09-03T22:17:36.178Z,18.25
2022-09-03T22:20:05.332Z,18.30
2022-09-03T22:22:40.922Z,18.32
2022-09-03T22:25:40.541Z,18.28
2022-09-03T22:28:17.744Z,18.31
2022-09-03T22:30:59.015Z,18.28
2022-09-03T22:33:33.161Z,18.27
2022-09-03T22:36:11.575Z,18.22
2022-09-03T22:38:50.730Z,18.18
2022-09-03T22:41:53.054Z,18.18
2022-09-03T22:44:43.972Z,18.18
2022-09-03T22:47:53.252Z,18.12
2022-09-03T22:50:26.873Z,18.06
2022-09-03T22:52:59.320Z,18.15
2022-09-03T22:55:26.575Z,18.11
2022-09-03T22:58:14.029Z,18.15
2022-09-03T23:00:47.019Z,18.12
2022-09-03T23:03:25.388Z,18.04
2022-09-03T23:06:05.669Z,18.06
2022-09-03T23:08:39.413Z,18.00
2022-09-03T23:11:12.816Z,17.94
2022-09-03T23:13:49.012Z,17.88
2022-09-03T23:16:48.849Z,17.94
2022-09-03T23:21:58.608Z,18.03
2022-09-03T23:24:30.619Z,18.06
2022-09-03T23:27:00.968Z,18.07
2022-09-03T23:29:41.164Z,18.04
2022-09-03T23:32:09.399Z,17.98
2022-09-03T23:34:36.589Z,17.91
2022-09-03T23:37:42.171Z,17.86
2022-09-03T23:40:47.966Z,17.84
2022-09-03T23:43:36.404Z,17.79
2022-09-03T23:46:25.738Z,17.76
2022-09-03T23:49:14.055Z,17.78
2022-09-03T23:52:21.430Z,17.74
2022-09-03T23:54:53.686Z,17.71
2022-09-03T23:57:32.088Z,17.64
